Time;durP1;ratioP1;P1;durP2;ratioP2;P2;SDS_P1;SDS_P2;PMS_P1;PMS_P2;Temp;Humidity;BMP_temperature;BMP_pressure;BME280_temperature;BME280_humidity;BME280_pressure;Samples;Min_cycle;Max_cycle;Signal;HPM_P1;HPM_P2
2021/09/23 00:00:52;;;;;;;8.00;6.30;;;;;;;11.78;57.65;100474.36;117320;1183;23554;-66
2021/09/23 00:05:58;;;;;;;8.10;6.50;;;;;;;11.71;57.84;100484.11;117323;1182;23540;-66
2021/09/23 00:08:28;;;;;;;7.50;6.00;;;;;;;11.72;57.70;100481.81;117339;1182;21864;-65
2021/09/23 00:10:56;;;;;;;8.70;6.50;;;;;;;11.70;57.83;100479.92;117409;1186;21862;-60
2021/09/23 00:13:27;;;;;;;8.00;5.90;;;;;;;11.74;57.70;100481.45;117468;1185;23447;-60
2021/09/23 00:15:56;;;;;;;;;;;;;;;11.75;57.67;100478.27;117477;1183;21844;-61
2021/09/23 00:18:28;;;;;;;8.10;5.90;;;;;;;11.75;57.64;100482.13;117315;1182;22622;-61
2021/09/23 00:21:18;;;;;;;10.20;6.30;;;;;;;11.72;57.58;100484.27;117284;1186;21859;-61
2021/09/23 00:23:48;;;;;;;7.70;5.90;;;;;;;11.71;57.62;100486.93;117381;1182;22935;-61
2021/09/23 00:26:24;;;;;;;7.90;6.50;;;;;;;11.70;57.64;100489.05;117297;1182;23545;-61
2021/09/23 00:28:52;;;;;;;7.80;6.40;;;;;;;11.70;57.61;100490.11;117355;1185;21911;-61
2021/09/23 00:31:21;;;;;;;8.00;6.40;;;;;;;11.68;57.68;100490.14;117075;1186;21863;-61
2021/09/23 00:33:49;;;;;;;8.90;6.20;;;;;;;11.67;57.68;100490.70;117440;1185;23640;-61
2021/09/23 00:36:31;;;;;;;8.70;5.70;;;;;;;11.67;57.71;100486.14;117322;1176;23531;-61
2021/09/23 00:38:59;;;;;;;8.50;7.10;;;;;;;11.63;57.41;100484.97;117372;1182;23550;-60
2021/09/23 00:41:27;;;;;;;8.60;6.30;;;;;;;11.60;57.64;100486.59;117398;1185;23567;-61
2021/09/23 00:43:56;;;;;;;8.50;6.90;;;;;;;11.57;57.64;100485.03;117295;1182;23470;-61
2021/09/23 00:46:24;;;;;;;9.80;6.90;;;;;;;11.55;57.60;100487.36;117286;1186;21876;-61
2021/09/23 00:48:52;;;;;;;8.10;6.60;;;;;;;11.51;57.66;100483.38;117352;1185;21856;-61
2021/09/23 00:51:20;;;;;;;10.20;6.70;;;;;;;11.47;57.75;100484.31;117354;1184;23468;-61
2021/09/23 00:53:49;;;;;;;8.90;7.00;;;;;;;11.44;57.76;100485.23;117237;1185;23261;-61
2021/09/23 00:56:37;;;;;;;9.30;7.00;;;;;;;11.42;57.75;100487.38;117374;1185;21919;-61
2021/09/23 00:59:25;;;;;;;9.20;6.00;;;;;;;11.40;57.70;100490.02;117422;1186;22006;-61
2021/09/23 01:01:54;;;;;;;9.10;6.50;;;;;;;11.40;57.77;100491.08;117331;1183;23566;-61
2021/09/23 01:04:23;;;;;;;10.20;7.40;;;;;;;11.40;57.78;100492.48;117307;1182;22655;-61
2021/09/23 01:06:52;;;;;;;9.50;6.80;;;;;;;11.40;57.72;100487.92;117458;1183;23564;-61
2021/09/23 01:09:54;;;;;;;9.50;6.50;;;;;;;11.40;57.84;100488.10;117408;1180;21841;-61
2021/09/23 01:12:25;;;;;;;8.70;6.40;;;;;;;11.42;57.80;100490.02;117487;1183;23544;-61
2021/09/23 01:14:54;;;;;;;11.20;7.30;;;;;;;11.44;57.92;100490.52;117364;1185;23545;-61
2021/09/23 01:17:23;;;;;;;8.80;7.30;;;;;;;11.50;57.85;100490.77;117282;1185;21858;-61
2021/09/23 01:19:54;;;;;;;9.70;7.50;;;;;;;11.50;57.83;100488.65;117298;1182;23637;-61
2021/09/23 01:22:26;;;;;;;10.20;7.00;;;;;;;11.53;57.93;100491.25;117290;1189;23566;-61
2021/09/23 01:24:55;;;;;;;9.70;7.50;;;;;;;11.60;57.94;100487.64;117252;1184;23566;-61
2021/09/23 01:27:36;;;;;;;10.40;7.10;;;;;;;11.64;57.78;100486.71;117320;1182;23535;-61
2021/09/23 01:30:06;;;;;;;10.40;7.30;;;;;;;11.69;57.93;100485.23;117278;1185;22569;-61
2021/09/23 01:32:34;;;;;;;11.70;8.90;;;;;;;11.71;57.75;100486.06;117400;1185;23447;-61
2021/09/23 01:35:03;;;;;;;10.10;7.80;;;;;;;11.73;57.96;100481.10;117368;1183;23569;-61
2021/09/23 01:37:31;;;;;;;10.80;8.80;;;;;;;11.74;57.95;100481.61;117485;1183;23625;-61
2021/09/23 01:40:00;;;;;;;9.70;7.70;;;;;;;11.81;57.90;100480.98;117406;1182;23534;-61
2021/09/23 01:42:28;;;;;;;10.10;8.20;;;;;;;11.85;58.05;100482.35;117169;1190;21860;-61
2021/09/23 01:44:56;;;;;;;12.90;8.10;;;;;;;11.85;58.15;100481.98;117254;1183;23452;-61
2021/09/23 01:47:30;;;;;;;10.00;7.90;;;;;;;11.89;58.13;100477.88;117338;1184;23544;-61
2021/09/23 01:49:58;;;;;;;12.10;7.10;;;;;;;11.92;57.96;100478.52;117258;1185;21878;-61
2021/09/23 01:52:28;;;;;;;13.00;7.70;;;;;;;11.96;57.95;100478.64;117348;1184;23006;-61
2021/09/23 01:54:58;;;;;;;8.90;6.70;;;;;;;11.95;58.11;100477.05;117358;1185;23541;-61
2021/09/23 01:57:26;;;;;;;11.10;7.50;;;;;;;11.97;57.92;100478.80;117401;1183;23563;-60
2021/09/23 01:59:54;;;;;;;13.30;7.60;;;;;;;12.00;58.18;100475.79;117377;1185;21859;-61
2021/09/23 02:02:23;;;;;;;11.60;8.00;;;;;;;12.03;57.87;100474.15;117296;1186;23582;-61
2021/09/23 02:04:54;;;;;;;11.50;7.90;;;;;;;12.08;57.92;100474.77;117298;1176;21860;-61
2021/09/23 02:07:22;;;;;;;9.70;6.90;;;;;;;12.10;58.03;100473.52;117342;1183;23440;-60
2021/09/23 02:09:51;;;;;;;10.30;7.40;;;;;;;12.10;57.84;100472.28;117413;1185;21855;-61
2021/09/23 02:12:21;;;;;;;10.70;7.00;;;;;;;12.11;57.93;100472.80;117328;1182;22303;-61
2021/09/23 02:15:10;;;;;;;10.80;7.50;;;;;;;12.14;57.93;100476.95;117292;1181;23675;-61
2021/09/23 02:17:58;;;;;;;10.10;7.10;;;;;;;12.18;57.73;100476.37;117296;1188;21865;-61
2021/09/23 02:20:43;;;;;;;9.90;6.70;;;;;;;12.18;57.79;100473.54;117333;1184;23567;-61
2021/09/23 02:23:11;;;;;;;9.70;6.50;;;;;;;12.19;58.12;100474.94;117426;1182;23459;-61
2021/09/23 02:25:59;;;;;;;10.10;6.90;;;;;;;12.24;57.90;100472.57;117381;1186;21864;-61
2021/09/23 02:28:27;;;;;;;11.50;7.60;;;;;;;12.25;58.03;100467.98;117295;1185;21897;-61
2021/09/23 02:30:56;;;;;;;9.80;7.20;;;;;;;12.27;57.87;100464.95;117325;1189;21871;-61
2021/09/23 02:33:24;;;;;;;10.60;7.50;;;;;;;12.28;57.88;100466.52;117388;1182;21857;-61
2021/09/23 02:35:52;;;;;;;10.00;6.50;;;;;;;12.29;57.84;100465.46;117317;1184;23456;-61
2021/09/23 02:38:20;;;;;;;10.80;7.50;;;;;;;12.29;57.75;100467.20;117313;1183;21864;-61
2021/09/23 02:41:08;;;;;;;10.30;6.50;;;;;;;12.30;58.01;100467.89;117353;1186;21854;-61
2021/09/23 02:43:37;;;;;;;11.10;7.80;;;;;;;12.31;57.98;100465.59;117422;1182;23458;-61
2021/09/23 02:46:05;;;;;;;12.60;6.70;;;;;;;12.31;58.05;100468.59;117362;1182;23458;-61
2021/09/23 02:48:33;;;;;;;10.60;7.50;;;;;;;12.30;57.99;100466.48;117280;1183;22623;-61
2021/09/23 02:51:01;;;;;;;11.60;7.50;;;;;;;12.31;57.89;100467.71;117256;1182;23474;-61
2021/09/23 02:53:30;;;;;;;11.00;7.00;;;;;;;12.33;57.93;100468.73;117271;1185;23571;-61
2021/09/23 02:56:00;;;;;;;11.90;6.90;;;;;;;12.34;57.86;100472.56;117261;1185;23650;-61
2021/09/23 02:58:29;;;;;;;10.60;7.50;;;;;;;12.32;57.94;100471.38;117273;1184;23641;-61
2021/09/23 03:00:57;;;;;;;11.00;7.80;;;;;;;12.27;58.05;100476.74;117391;1182;23459;-61
2021/09/23 03:03:25;;;;;;;11.20;7.60;;;;;;;12.26;58.14;100479.05;117379;1183;21863;-60
2021/09/23 03:05:55;;;;;;;10.10;7.70;;;;;;;12.24;58.11;100482.07;117413;1187;23538;-66
2021/09/23 03:08:24;;;;;;;10.40;7.90;;;;;;;12.23;58.23;100485.25;117517;1184;23556;-65
2021/09/23 03:10:52;;;;;;;16.30;9.10;;;;;;;12.23;58.16;100481.39;117358;1183;21889;-66
2021/09/23 03:13:21;;;;;;;11.70;7.70;;;;;;;12.22;58.21;100483.15;117242;1185;21982;-61
2021/09/23 03:15:50;;;;;;;14.80;8.50;;;;;;;12.24;58.22;100483.84;117283;1183;24156;-61
2021/09/23 03:18:19;;;;;;;12.20;7.80;;;;;;;12.27;58.31;100482.02;117367;1184;23530;-61
2021/09/23 03:20:48;;;;;;;11.20;8.30;;;;;;;12.27;58.16;100481.84;117538;1179;23819;-61
2021/09/23 03:23:25;;;;;;;12.50;8.00;;;;;;;12.28;58.10;100482.70;117415;1183;23541;-61
2021/09/23 03:25:56;;;;;;;;;;;;;;;12.29;58.33;100483.91;117368;1179;23579;-61
2021/09/23 03:28:25;;;;;;;14.00;7.50;;;;;;;12.30;58.10;100486.55;117293;1187;21855;-60
2021/09/23 03:31:13;;;;;;;11.50;7.80;;;;;;;12.30;58.14;100488.48;117241;1185;21848;-60
2021/09/23 03:33:41;;;;;;;11.70;8.00;;;;;;;12.30;58.12;100490.06;117228;1187;21858;-60
2021/09/23 03:36:25;;;;;;;11.20;7.70;;;;;;;12.29;58.16;100490.96;117302;1180;22660;-60
2021/09/23 03:38:55;;;;;;;12.90;8.40;;;;;;;12.29;58.25;100487.27;117410;1186;21887;-60
2021/09/23 03:41:23;;;;;;;13.10;8.70;;;;;;;12.33;58.19;100490.00;117550;1183;23460;-60
2021/09/23 03:43:52;;;;;;;11.00;7.70;;;;;;;12.28;58.12;100489.03;117420;1183;22627;-60
2021/09/23 03:46:21;;;;;;;10.00;7.90;;;;;;;12.28;58.15;100490.98;117347;1183;23545;-60
2021/09/23 03:49:09;;;;;;;14.80;7.90;;;;;;;12.29;58.30;100488.50;117269;1186;21862;-60
2021/09/23 03:51:38;;;;;;;13.90;8.80;;;;;;;12.31;58.17;100488.45;117343;1182;24005;-60
2021/09/23 03:54:09;;;;;;;10.80;7.80;;;;;;;12.30;58.11;100490.59;117325;1185;21843;-60
2021/09/23 03:56:58;;;;;;;10.30;6.50;;;;;;;12.31;57.90;100491.81;117347;1185;22978;-59
2021/09/23 03:59:26;;;;;;;8.70;5.80;;;;;;;12.29;57.99;100491.65;117285;1182;23477;-60
2021/09/23 04:01:55;;;;;;;8.30;5.90;;;;;;;12.27;57.92;100496.10;117325;1182;23544;-60
2021/09/23 04:04:25;;;;;;;9.80;5.60;;;;;;;12.17;57.96;100497.48;117217;1185;23533;-61
2021/09/23 04:06:53;;;;;;;10.40;6.20;;;;;;;12.12;58.04;100493.89;117207;1186;23457;-60
2021/09/23 04:09:21;;;;;;;10.10;5.60;;;;;;;12.10;58.08;100496.73;117344;1185;23566;-60
2021/09/23 04:11:49;;;;;;;8.60;5.10;;;;;;;12.09;58.20;100498.70;117409;1183;22005;-61
2021/09/23 04:14:17;;;;;;;9.60;5.50;;;;;;;12.07;58.21;100499.59;119436;1182;21779;-61
2021/09/23 04:17:05;;;;;;;10.30;5.20;;;;;;;12.06;58.17;100501.57;118409;1185;21859;-61
2021/09/23 04:19:34;;;;;;;11.30;4.40;;;;;;;12.04;58.14;100501.23;117325;1185;23566;-61
2021/09/23 04:22:22;;;;;;;6.20;4.50;;;;;;;12.03;58.19;100501.07;117200;1185;21854;-60
2021/09/23 04:24:51;;;;;;;7.30;4.40;;;;;;;12.02;58.19;100504.27;117369;1182;23365;-60
2021/09/23 04:27:39;;;;;;;8.40;4.60;;;;;;;12.00;58.13;100508.67;117141;1185;21867;-60
2021/09/23 04:30:08;;;;;;;9.60;4.40;;;;;;;12.00;58.33;100505.86;116932;1182;21961;-60
2021/09/23 04:32:36;;;;;;;5.70;4.00;;;;;;;12.00;58.29;100508.85;117336;1186;21922;-60
2021/09/23 04:35:05;;;;;;;6.60;5.00;;;;;;;12.01;58.25;100511.13;117359;1184;23531;-60
2021/09/23 04:37:36;;;;;;;5.90;4.70;;;;;;;12.02;58.30;100514.44;117294;1183;22908;-60
2021/09/23 04:40:05;;;;;;;6.20;4.70;;;;;;;12.03;58.27;100516.89;117319;1184;23566;-59
2021/09/23 04:42:34;;;;;;;6.30;4.90;;;;;;;12.00;58.19;100515.88;117356;1185;21857;-60
2021/09/23 04:45:02;;;;;;;7.60;4.20;;;;;;;12.00;58.17;100521.50;117442;1185;23556;-60
2021/09/23 04:47:31;;;;;;;8.20;4.30;;;;;;;12.01;58.45;100522.20;117405;1185;21869;-60
2021/09/23 04:49:59;;;;;;;5.90;4.60;;;;;;;11.99;58.45;100519.40;117341;1185;23442;-60
2021/09/23 04:52:27;;;;;;;6.50;4.50;;;;;;;12.01;58.45;100521.33;117315;1183;23557;-59
2021/09/23 04:54:58;;;;;;;5.60;4.10;;;;;;;12.01;58.52;100522.73;117344;1185;21865;-59
2021/09/23 04:57:46;;;;;;;6.70;3.80;;;;;;;12.03;58.39;100525.85;117278;1186;22967;-59
2021/09/23 05:00:23;;;;;;;6.10;4.20;;;;;;;12.06;58.51;100528.11;117312;1185;23567;-60
2021/09/23 05:02:51;;;;;;;5.40;3.70;;;;;;;12.08;58.34;100533.19;117362;1185;21855;-59
2021/09/23 05:05:20;;;;;;;5.40;3.50;;;;;;;12.10;58.42;100532.98;117373;1183;22622;-60
2021/09/23 05:08:09;;;;;;;7.60;3.70;;;;;;;12.13;58.39;100534.86;117279;1185;21867;-59
2021/09/23 05:10:37;;;;;;;7.80;3.60;;;;;;;12.14;58.43;100531.85;117337;1183;23646;-59
2021/09/23 05:13:07;;;;;;;9.80;4.00;;;;;;;12.16;58.59;100533.03;117309;1184;23600;-59
2021/09/23 05:15:37;;;;;;;22.00;4.90;;;;;;;12.19;58.50;100534.73;117319;1186;23548;-59
2021/09/23 05:18:05;;;;;;;9.20;3.40;;;;;;;12.19;58.78;100530.71;117359;1185;21861;-58
2021/09/23 05:20:33;;;;;;;13.50;4.20;;;;;;;12.19;58.69;100534.04;117340;1182;23544;-58
2021/09/23 05:23:02;;;;;;;7.50;3.90;;;;;;;12.22;58.69;100531.19;117329;1186;23589;-59
2021/09/23 05:25:32;;;;;;;6.50;3.70;;;;;;;12.26;58.81;100534.11;117326;1181;23624;-60
2021/09/23 05:28:00;;;;;;;9.70;3.60;;;;;;;12.28;58.77;100536.89;117241;1185;21859;-59
2021/09/23 05:30:29;;;;;;;5.60;3.80;;;;;;;12.30;58.72;100534.77;117382;1184;23544;-59
2021/09/23 05:32:57;;;;;;;5.50;3.70;;;;;;;12.31;58.65;100540.18;117349;1181;21861;-58
2021/09/23 05:35:25;;;;;;;5.00;3.80;;;;;;;12.33;58.62;100538.92;117376;1185;23554;-58
2021/09/23 05:37:53;;;;;;;7.40;4.40;;;;;;;12.33;58.69;100538.74;117384;1184;21987;-59
2021/09/23 05:40:22;;;;;;;5.80;3.80;;;;;;;12.33;58.71;100539.27;117302;1185;21863;-59
2021/09/23 05:42:50;;;;;;;6.20;4.20;;;;;;;12.33;58.74;100539.81;117292;1185;21860;-60
2021/09/23 05:45:18;;;;;;;7.60;4.70;;;;;;;12.37;58.92;100542.91;117284;1185;21891;-60
2021/09/23 05:47:46;;;;;;;7.40;4.80;;;;;;;12.38;58.81;100546.92;117271;1185;21857;-59
2021/09/23 05:50:15;;;;;;;8.90;4.90;;;;;;;12.36;58.88;100544.85;117312;1183;23559;-59
2021/09/23 05:52:44;;;;;;;5.90;4.20;;;;;;;12.36;58.82;100547.86;117328;1185;23801;-59
2021/09/23 05:55:33;;;;;;;6.60;4.30;;;;;;;12.35;58.70;100540.31;117230;1185;21867;-60
2021/09/23 05:58:03;;;;;;;8.40;4.50;;;;;;;12.34;58.86;100546.30;117256;1185;23563;-60
2021/09/23 06:00:32;;;;;;;5.30;3.90;;;;;;;12.39;59.02;100548.50;117309;1185;22168;-59
2021/09/23 06:03:06;;;;;;;5.20;3.70;;;;;;;12.53;59.22;100546.52;117233;1182;23541;-58
2021/09/23 06:05:35;;;;;;;8.30;5.00;;;;;;;12.70;59.24;100542.67;117220;1185;21864;-57
2021/09/23 06:08:04;;;;;;;7.70;5.00;;;;;;;12.86;59.21;100543.44;118023;1186;24004;-58
2021/09/23 06:10:49;;;;;;;6.80;4.90;;;;;;;13.00;59.21;100543.16;117256;1185;23833;-59
2021/09/23 06:13:19;;;;;;;5.70;4.70;;;;;;;13.11;59.30;100542.42;117289;1185;23466;-57
2021/09/23 06:16:07;;;;;;;6.70;4.90;;;;;;;13.28;59.44;100541.90;117276;1185;21860;-58
2021/09/23 06:18:37;;;;;;;5.60;4.30;;;;;;;13.45;59.51;100543.33;118175;1185;22020;-58
2021/09/23 06:21:25;;;;;;;5.50;4.40;;;;;;;13.67;59.48;100541.98;117289;1184;21857;-58
2021/09/23 06:23:54;;;;;;;4.60;3.40;;;;;;;13.77;59.37;100542.45;117335;1184;23813;-57
2021/09/23 06:26:42;;;;;;;5.60;4.10;;;;;;;13.82;59.22;100546.77;117313;1185;21859;-57
2021/09/23 06:29:11;;;;;;;7.90;4.30;;;;;;;13.84;59.21;100548.11;117222;1182;23544;-57
2021/09/23 06:31:39;;;;;;;5.80;3.90;;;;;;;13.85;59.16;100549.69;117318;1185;23656;-57
2021/09/23 06:34:08;;;;;;;6.10;4.60;;;;;;;13.86;59.11;100549.48;117351;1185;23541;-58
2021/09/23 06:36:36;;;;;;;5.30;4.00;;;;;;;13.85;59.15;100547.20;117323;1184;23544;-57
2021/09/23 06:39:04;;;;;;;7.10;4.00;;;;;;;13.87;59.13;100547.34;117294;1189;23544;-57
2021/09/23 06:41:33;;;;;;;6.50;4.30;;;;;;;13.93;59.24;100546.29;117310;1185;23557;-57
2021/09/23 06:44:04;;;;;;;6.90;4.40;;;;;;;14.05;59.47;100543.91;117308;1183;23534;-57
2021/09/23 06:46:33;;;;;;;6.10;4.20;;;;;;;14.19;59.39;100543.23;117355;1184;23547;-57
2021/09/23 06:49:23;;;;;;;5.80;4.30;;;;;;;14.24;59.29;100545.21;117285;1185;23449;-58
2021/09/23 06:51:55;;;;;;;5.60;4.30;;;;;;;14.27;59.23;100542.33;117318;1181;23588;-58
2021/09/23 06:54:23;;;;;;;4.60;3.50;;;;;;;14.27;59.19;100542.15;117328;1183;22904;-58
2021/09/23 06:56:51;;;;;;;5.00;3.90;;;;;;;14.23;59.07;100541.90;117260;1185;21855;-56
2021/09/23 06:59:20;;;;;;;5.30;3.70;;;;;;;14.16;59.00;100541.17;117350;1183;24737;-57
2021/09/23 07:01:51;;;;;;;5.50;3.40;;;;;;;14.10;58.77;100547.67;117356;1183;23637;-57
2021/09/23 07:04:19;;;;;;;4.30;3.00;;;;;;;14.00;58.90;100545.98;117264;1184;22646;-56
2021/09/23 07:06:48;;;;;;;3.80;3.10;;;;;;;13.94;58.80;100548.39;117321;1185;23601;-56
2021/09/23 07:09:16;;;;;;;4.00;3.40;;;;;;;13.93;59.01;100548.96;117392;1184;23471;-56
2021/09/23 07:11:45;;;;;;;8.10;3.30;;;;;;;13.95;58.98;100552.27;117316;1183;23437;-56
2021/09/23 07:14:13;;;;;;;4.80;2.90;;;;;;;14.03;59.20;100550.31;117341;1185;23544;-56
2021/09/23 07:16:44;;;;;;;3.90;2.70;;;;;;;14.14;59.24;100547.74;117429;1185;23545;-57
2021/09/23 07:19:12;;;;;;;3.40;2.20;;;;;;;14.24;59.35;100554.04;117342;1183;23567;-57
2021/09/23 07:22:14;;;;;;;3.90;1.90;;;;;;;14.37;59.24;100553.54;117341;1184;23439;-57
2021/09/23 07:24:43;;;;;;;3.70;2.20;;;;;;;14.44;59.24;100554.96;117338;1185;21858;-57
2021/09/23 07:27:11;;;;;;;3.70;2.40;;;;;;;14.51;59.18;100556.36;117299;1184;22922;-57
2021/09/23 07:29:59;;;;;;;4.20;2.80;;;;;;;14.52;59.12;100558.28;117303;1180;22967;-57
2021/09/23 07:32:28;;;;;;;4.50;2.90;;;;;;;14.54;59.24;100562.48;117385;1182;22648;-57
2021/09/23 07:34:57;;;;;;;5.00;3.20;;;;;;;14.58;59.18;100559.17;117340;1183;23567;-57
2021/09/23 07:37:44;;;;;;;3.80;2.70;;;;;;;14.68;59.14;100554.88;117366;1184;23556;-57
2021/09/23 07:40:13;;;;;;;5.10;2.30;;;;;;;14.79;59.28;100555.83;117342;1182;23672;-56
2021/09/23 07:42:41;;;;;;;4.70;2.20;;;;;;;14.97;59.35;100555.89;117462;1185;21856;-56
2021/09/23 07:45:10;;;;;;;4.50;2.70;;;;;;;15.10;59.28;100563.30;117334;1185;21855;-56
2021/09/23 07:47:39;;;;;;;3.60;2.20;;;;;;;15.15;59.17;100559.09;117278;1183;23545;-55
2021/09/23 07:50:08;;;;;;;4.30;2.30;;;;;;;15.17;59.09;100561.70;117283;1185;23624;-55
2021/09/23 07:52:37;;;;;;;2.90;2.20;;;;;;;15.20;59.13;100560.91;117299;1183;22917;-56
2021/09/23 07:55:07;;;;;;;6.40;3.00;;;;;;;15.25;59.14;100562.89;117444;1185;21862;-55
2021/09/23 07:57:55;;;;;;;3.10;2.20;;;;;;;15.27;59.13;100560.18;117301;1184;21858;-55
2021/09/23 08:00:25;;;;;;;3.90;2.20;;;;;;;15.25;58.86;100554.05;117331;1185;22973;-55
2021/09/23 08:02:53;;;;;;;3.50;2.20;;;;;;;15.21;58.91;100553.11;117370;1185;21866;-55
2021/09/23 08:05:28;;;;;;;5.10;2.10;;;;;;;15.31;59.18;100550.16;117338;1185;22147;-55
2021/09/23 08:07:57;;;;;;;3.10;2.00;;;;;;;15.51;59.58;100551.67;117349;1184;23543;-55
2021/09/23 08:10:45;;;;;;;2.40;1.30;;;;;;;15.73;59.52;100547.67;117308;1188;21863;-55
2021/09/23 08:13:13;;;;;;;3.00;1.50;;;;;;;15.81;59.33;100548.67;117304;1181;22908;-55
2021/09/23 08:16:02;;;;;;;4.40;2.10;;;;;;;15.81;59.06;100550.78;117295;1185;21863;-56
2021/09/23 08:18:30;;;;;;;3.90;2.30;;;;;;;15.75;58.87;100552.02;117332;1185;23567;-55
2021/09/23 08:20:59;;;;;;;3.20;1.90;;;;;;;15.66;58.70;100548.77;117412;1184;22917;-55
2021/09/23 08:23:27;;;;;;;2.30;1.60;;;;;;;15.57;58.70;100546.02;117353;1186;21898;-55
2021/09/23 08:26:05;;;;;;;3.10;1.90;;;;;;;15.49;58.72;100547.34;117353;1184;23475;-55
2021/09/23 08:28:35;;;;;;;6.50;2.20;;;;;;;15.51;59.13;100540.18;117385;1185;23548;-56
2021/09/23 08:31:03;;;;;;;6.10;1.30;;;;;;;15.72;59.60;100536.73;117334;1186;23463;-56
2021/09/23 08:33:32;;;;;;;2.40;1.40;;;;;;;16.00;59.68;100535.02;117343;1186;22961;-58
2021/09/23 08:36:00;;;;;;;5.50;1.50;;;;;;;16.16;59.52;100537.49;117369;1185;21845;-58
2021/09/23 08:38:29;;;;;;;5.70;1.30;;;;;;;16.18;59.17;100534.41;117349;1187;21867;-56
2021/09/23 08:40:57;;;;;;;2.00;1.40;;;;;;;16.15;58.90;100532.56;117334;1185;22647;-57
2021/09/23 08:43:25;;;;;;;3.50;1.30;;;;;;;16.08;58.83;100535.63;117305;1183;23471;-56
2021/09/23 08:45:54;;;;;;;3.10;1.50;;;;;;;16.04;58.87;100538.04;117471;1182;22903;-58
2021/09/23 08:48:23;;;;;;;2.60;1.70;;;;;;;16.02;58.88;100536.01;117373;1183;23207;-57
2021/09/23 08:50:51;;;;;;;6.50;2.30;;;;;;;16.01;58.87;100536.04;117190;1185;23439;-57
2021/09/23 08:53:31;;;;;;;9.10;2.30;;;;;;;15.97;58.74;100538.64;117333;1185;22482;-58
2021/09/23 08:56:00;;;;;;;8.50;3.10;;;;;;;15.91;58.66;100543.23;117493;1185;21854;-57
2021/09/23 08:58:28;;;;;;;4.10;2.30;;;;;;;15.82;58.60;100544.20;117382;1178;21858;-57
2021/09/23 09:01:09;;;;;;;6.00;3.60;;;;;;;15.73;58.50;100547.16;117311;1185;22651;-56
2021/09/23 09:03:39;;;;;;;4.50;2.50;;;;;;;15.58;58.43;100552.23;117384;1183;23561;-56
2021/09/23 09:06:11;;;;;;;6.30;3.20;;;;;;;15.46;58.48;100552.38;117358;1184;23817;-56
2021/09/23 09:08:41;;;;;;;6.90;2.40;;;;;;;15.33;58.45;100548.51;117365;1185;21854;-56
2021/09/23 09:11:30;;;;;;;5.10;2.60;;;;;;;15.25;58.57;100550.15;117326;1182;23567;-56
2021/09/23 09:13:58;;;;;;;4.40;2.60;;;;;;;15.23;58.66;100548.80;117336;1182;21880;-56
2021/09/23 09:16:27;;;;;;;5.20;2.80;;;;;;;15.27;58.75;100548.67;117333;1184;22960;-58
2021/09/23 09:19:12;;;;;;;4.30;2.50;;;;;;;15.31;58.85;100537.79;117277;1185;23555;-57
2021/09/23 09:21:40;;;;;;;4.30;2.40;;;;;;;15.38;58.98;100542.70;117282;1184;23443;-57
2021/09/23 09:24:11;;;;;;;3.40;2.00;;;;;;;15.56;59.36;100541.46;117172;1186;23812;-57
2021/09/23 09:26:41;;;;;;;4.50;2.40;;;;;;;15.81;59.50;100542.85;117261;1184;23546;-57
2021/09/23 09:29:14;;;;;;;5.40;2.60;;;;;;;16.05;59.54;100544.05;117338;1176;21863;-59
2021/09/23 09:31:48;;;;;;;4.60;2.60;;;;;;;16.25;59.39;100542.33;117333;1185;21853;-57
2021/09/23 09:34:19;;;;;;;4.80;4.00;;;;;;;16.36;59.20;100548.86;117341;1185;21853;-58
2021/09/23 09:36:50;;;;;;;4.70;2.90;;;;;;;16.39;58.96;100548.77;117337;1185;21859;-57
2021/09/23 09:39:20;;;;;;;3.70;2.80;;;;;;;16.37;58.95;100545.99;117389;1182;23544;-57
2021/09/23 09:41:50;;;;;;;5.70;2.80;;;;;;;16.40;58.92;100544.50;117446;1184;22623;-58
2021/09/23 09:44:30;;;;;;;3.40;2.40;;;;;;;16.46;59.13;100548.91;117298;1185;23545;-57
2021/09/23 09:46:58;;;;;;;2.80;2.40;;;;;;;16.53;59.16;100551.33;117177;1187;23887;-57
2021/09/23 09:49:47;;;;;;;3.70;2.50;;;;;;;16.54;59.02;100550.23;117121;1185;22907;-57
2021/09/23 09:52:16;;;;;;;7.00;3.00;;;;;;;16.52;58.94;100554.01;117166;1185;21858;-56
2021/09/23 09:54:44;;;;;;;3.50;2.50;;;;;;;16.44;58.73;100554.27;117131;1187;23439;-56
2021/09/23 09:57:25;;;;;;;3.90;2.70;;;;;;;16.31;58.69;100556.66;117331;1182;23681;-56
2021/09/23 09:59:59;;;;;;;3.70;2.50;;;;;;;16.22;58.57;100556.27;117314;1189;21902;-56
2021/09/23 10:02:28;;;;;;;4.80;2.40;;;;;;;16.16;58.57;100559.80;117274;1185;22638;-56
2021/09/23 10:04:59;;;;;;;4.70;3.00;;;;;;;16.10;58.63;100555.23;117280;1182;23461;-56
2021/09/23 10:07:27;;;;;;;4.90;2.50;;;;;;;16.09;58.91;100554.55;117225;1180;22322;-56
2021/09/23 10:09:56;;;;;;;3.40;2.50;;;;;;;16.14;59.03;100555.42;117125;1186;21845;-56
2021/09/23 10:12:45;;;;;;;3.30;2.60;;;;;;;16.31;59.09;100547.80;117021;1187;21889;-56
2021/09/23 10:15:16;;;;;;;;;;;;;;;16.52;59.46;100548.89;117232;1186;21843;-56
2021/09/23 10:18:04;;;;;;;4.30;2.40;;;;;;;16.75;59.36;100544.34;117211;1180;24170;-56
2021/09/23 10:20:33;;;;;;;4.40;3.30;;;;;;;16.90;59.19;100545.05;117286;1186;21884;-56
2021/09/23 10:23:22;;;;;;;4.90;2.70;;;;;;;16.95;59.04;100544.37;117218;1185;21857;-56
2021/09/23 10:25:52;;;;;;;3.50;3.00;;;;;;;16.97;58.99;100546.80;117316;1183;22931;-56
2021/09/23 10:28:20;;;;;;;4.10;3.40;;;;;;;16.91;59.05;100545.36;117210;1183;24162;-56
2021/09/23 10:30:48;;;;;;;7.00;3.40;;;;;;;16.93;58.87;100548.67;117044;1186;23572;-57
2021/09/23 10:33:16;;;;;;;5.30;3.50;;;;;;;16.94;58.95;100547.73;117243;1184;21867;-57
2021/09/23 10:35:46;;;;;;;5.20;3.90;;;;;;;16.93;58.87;100548.84;117272;1185;24163;-57
2021/09/23 10:38:14;;;;;;;4.30;3.20;;;;;;;16.91;58.65;100547.86;117146;1186;21859;-57
2021/09/23 10:40:42;;;;;;;4.50;3.10;;;;;;;16.87;58.76;100549.08;117313;1180;22900;-56
2021/09/23 10:43:15;;;;;;;4.80;3.30;;;;;;;16.79;58.47;100552.16;117085;1187;21862;-58
2021/09/23 10:45:44;;;;;;;7.00;2.90;;;;;;;16.66;58.40;100560.23;117346;1185;21859;-58
2021/09/23 10:48:37;;;;;;;3.90;2.80;;;;;;;16.47;58.36;100566.21;117302;1186;23554;-58
2021/09/23 10:51:05;;;;;;;4.60;2.90;;;;;;;16.29;58.28;100570.34;117350;1183;21848;-58
2021/09/23 10:53:36;;;;;;;5.60;3.10;;;;;;;16.16;58.32;100570.27;117291;1179;21858;-58
2021/09/23 10:56:07;;;;;;;6.60;2.90;;;;;;;16.01;58.34;100569.66;117260;1185;22922;-58
2021/09/23 10:58:47;;;;;;;3.20;2.40;;;;;;;15.91;58.28;100569.24;117330;1185;23570;-58
2021/09/23 11:01:24;;;;;;;3.10;2.30;;;;;;;15.80;58.29;100567.63;117338;1185;21923;-58
2021/09/23 11:04:01;;;;;;;3.70;2.40;;;;;;;15.69;58.37;100565.85;117186;1182;23544;-58
2021/09/23 11:06:35;;;;;;;4.70;2.50;;;;;;;15.60;58.28;100565.75;117325;1183;22088;-58
2021/09/23 11:09:26;;;;;;;2.70;1.80;;;;;;;15.54;58.50;100567.71;117256;1185;21867;-58
2021/09/23 11:11:56;;;;;;;4.50;2.10;;;;;;;15.53;58.62;100565.10;117302;1183;22163;-57
2021/09/23 11:14:44;;;;;;;3.10;2.00;;;;;;;15.53;58.65;100565.43;117275;1182;23682;-57
2021/09/23 11:17:14;;;;;;;3.70;2.00;;;;;;;15.53;58.74;100567.54;117191;1188;24201;-57
2021/09/23 11:20:11;;;;;;;2.50;1.60;;;;;;;15.58;58.64;100566.67;117111;1185;23624;-58
2021/09/23 11:22:41;;;;;;;2.40;1.60;;;;;;;15.62;58.73;100564.99;117280;1182;22823;-58
2021/09/23 11:25:16;;;;;;;2.80;1.70;;;;;;;15.66;58.72;100564.35;117282;1185;23544;-58
2021/09/23 11:27:47;;;;;;;2.90;1.60;;;;;;;15.70;58.84;100562.09;117310;1185;23630;-58
2021/09/23 11:30:17;;;;;;;2.60;1.40;;;;;;;15.76;58.96;100556.42;117259;1182;23547;-58
2021/09/23 11:33:07;;;;;;;2.20;1.50;;;;;;;15.86;59.09;100556.48;117276;1185;22957;-58
2021/09/23 11:35:37;;;;;;;3.00;1.60;;;;;;;16.01;59.20;100552.85;117297;1182;23534;-57
2021/09/23 11:38:06;;;;;;;2.80;1.40;;;;;;;16.17;59.30;100549.67;117288;1185;22007;-58
2021/09/23 11:40:39;;;;;;;3.40;1.60;;;;;;;16.41;59.45;100547.65;117314;1184;22899;-57
2021/09/23 11:43:10;;;;;;;2.30;1.30;;;;;;;16.59;59.29;100546.33;117287;1184;23460;-57